Pagina principale
METAR-TAF:

METAR-TAF

Aeroporti :

Aeroporto di Friedrichshafen

Friedrichshafen, Germania

latitudine: 47-40N, longitudine: 009-31E, altezza: 416 m

Osservazione

Il bollettino è stato emesso 25 minuti fa, alle 02:20 UTC
Vento 6 kt da nord-est
Temperature 10°C
Umidità 87%
Pressione 1019 hPa
Visibilità: 6000 m

METAR: EDNY 190220Z AUTO 04006KT 6000 // NCD 10/08 Q1019

Ora: 04:45 (02:45 UTC)

Previsione

Il bollettino è stato emesso 3 ore e 45 minuti fa, alle 23:00 UTC
Previsione valida dal 19 alle 00 UTC al 19 alle 24 UTC
Vento 7 kt da nord/nord-est
Visibilità 10 km o più
nessuna nube inferiore a 1500 m e nessun cumulonembo
Probabilità 30% :
Temporaneamente
dal 19 alle 05 UTC al 19 alle 10 UTC
Nuvoloso ad un'altezza di 1000 ft

TAF: EDNY 182300Z 1900/1924 02007KT CAVOK PROB30 TEMPO 1905/1910 BKN010

Osservazioni e previsioni meteorologiche di più di 4000 aeroporti (messaggi METAR e TAF).

Le stazioni disponibili sono rappresentate dai dischi gialli e rossi sulla carta.

Puntare il mouse per vedere il nome della stazione.

Clicca sopra per visualizzare le osservazioni e previsioni meteorologiche.

Per cambiare la mappa : fare clic sui pulsanti verdi con una croce nera per ingrandire, il pulsante verde con un trattino per diminuire, o sulla freccia verde per le mappe adiacenti.


METAR-TAF: